sensor_id;sensor_type;location;lat;lon;timestamp;P1;durP1;ratioP1;P2;durP2;ratioP2
51438;SDS011;38816;51.142;-0.974;2024-01-15T00:00:24;8.10;;;4.70;;
51438;SDS011;38816;51.142;-0.974;2024-01-15T00:02:49;11.85;;;6.95;;
51438;SDS011;38816;51.142;-0.974;2024-01-15T00:05:14;10.20;;;5.38;;
51438;SDS011;38816;51.142;-0.974;2024-01-15T00:07:40;6.60;;;4.53;;
51438;SDS011;38816;51.142;-0.974;2024-01-15T00:10:05;8.50;;;5.00;;
51438;SDS011;38816;51.142;-0.974;2024-01-15T00:12:31;12.35;;;6.82;;
51438;SDS011;38816;51.142;-0.974;2024-01-15T00:14:56;13.50;;;6.80;;
51438;SDS011;38816;51.142;-0.974;2024-01-15T00:17:22;13.07;;;5.90;;
51438;SDS011;38816;51.142;-0.974;2024-01-15T00:19:48;8.27;;;5.00;;
51438;SDS011;38816;51.142;-0.974;2024-01-15T00:22:13;9.05;;;5.00;;
51438;SDS011;38816;51.142;-0.974;2024-01-15T00:24:39;7.53;;;4.40;;
51438;SDS011;38816;51.142;-0.974;2024-01-15T00:27:04;8.07;;;4.68;;
51438;SDS011;38816;51.142;-0.974;2024-01-15T00:29:30;6.57;;;4.68;;
51438;SDS011;38816;51.142;-0.974;2024-01-15T00:31:56;9.20;;;5.07;;
51438;SDS011;38816;51.142;-0.974;2024-01-15T00:34:21;7.45;;;3.53;;
51438;SDS011;38816;51.142;-0.974;2024-01-15T00:36:47;5.57;;;3.80;;
51438;SDS011;38816;51.142;-0.974;2024-01-15T00:39:13;5.60;;;3.40;;
51438;SDS011;38816;51.142;-0.974;2024-01-15T00:41:38;5.30;;;3.58;;
51438;SDS011;38816;51.142;-0.974;2024-01-15T00:44:07;6.25;;;3.85;;
51438;SDS011;38816;51.142;-0.974;2024-01-15T00:46:33;7.05;;;3.50;;
51438;SDS011;38816;51.142;-0.974;2024-01-15T00:48:58;6.10;;;3.70;;
51438;SDS011;38816;51.142;-0.974;2024-01-15T00:51:24;3.63;;;3.20;;
51438;SDS011;38816;51.142;-0.974;2024-01-15T00:53:52;3.58;;;3.17;;
51438;SDS011;38816;51.142;-0.974;2024-01-15T00:56:17;4.43;;;2.90;;
51438;SDS011;38816;51.142;-0.974;2024-01-15T00:58:46;2.45;;;2.25;;
51438;SDS011;38816;51.142;-0.974;2024-01-15T01:01:11;3.75;;;3.17;;
51438;SDS011;38816;51.142;-0.974;2024-01-15T01:03:37;2.83;;;2.50;;
51438;SDS011;38816;51.142;-0.974;2024-01-15T01:06:02;3.38;;;2.83;;
51438;SDS011;38816;51.142;-0.974;2024-01-15T01:08:31;3.20;;;2.90;;
51438;SDS011;38816;51.142;-0.974;2024-01-15T01:10:56;3.15;;;2.85;;
51438;SDS011;38816;51.142;-0.974;2024-01-15T01:13:22;3.53;;;2.88;;
51438;SDS011;38816;51.142;-0.974;2024-01-15T01:15:47;3.38;;;3.08;;
51438;SDS011;38816;51.142;-0.974;2024-01-15T01:18:13;3.63;;;3.33;;
51438;SDS011;38816;51.142;-0.974;2024-01-15T01:20:38;3.88;;;3.50;;
51438;SDS011;38816;51.142;-0.974;2024-01-15T01:23:04;3.45;;;3.15;;
51438;SDS011;38816;51.142;-0.974;2024-01-15T01:25:30;4.63;;;3.80;;
51438;SDS011;38816;51.142;-0.974;2024-01-15T01:27:55;3.95;;;3.65;;
51438;SDS011;38816;51.142;-0.974;2024-01-15T01:30:21;5.85;;;3.90;;
51438;SDS011;38816;51.142;-0.974;2024-01-15T01:32:46;4.43;;;4.03;;
51438;SDS011;38816;51.142;-0.974;2024-01-15T01:35:12;4.40;;;3.95;;
51438;SDS011;38816;51.142;-0.974;2024-01-15T01:37:37;7.50;;;3.80;;
51438;SDS011;38816;51.142;-0.974;2024-01-15T01:40:03;4.68;;;3.42;;
51438;SDS011;38816;51.142;-0.974;2024-01-15T01:42:30;3.88;;;3.53;;
51438;SDS011;38816;51.142;-0.974;2024-01-15T01:44:55;3.88;;;3.50;;
51438;SDS011;38816;51.142;-0.974;2024-01-15T01:47:21;3.90;;;3.58;;
51438;SDS011;38816;51.142;-0.974;2024-01-15T01:49:46;5.70;;;3.97;;
51438;SDS011;38816;51.142;-0.974;2024-01-15T01:52:12;3.92;;;3.50;;
51438;SDS011;38816;51.142;-0.974;2024-01-15T01:54:38;6.57;;;3.50;;
51438;SDS011;38816;51.142;-0.974;2024-01-15T01:57:05;4.22;;;3.40;;
51438;SDS011;38816;51.142;-0.974;2024-01-15T01:59:32;3.90;;;3.60;;
51438;SDS011;38816;51.142;-0.974;2024-01-15T02:01:59;6.75;;;3.53;;
51438;SDS011;38816;51.142;-0.974;2024-01-15T02:04:26;5.32;;;3.85;;
51438;SDS011;38816;51.142;-0.974;2024-01-15T02:06:53;6.05;;;3.50;;
51438;SDS011;38816;51.142;-0.974;2024-01-15T02:09:19;4.65;;;3.30;;
51438;SDS011;38816;51.142;-0.974;2024-01-15T02:11:48;3.70;;;3.40;;
51438;SDS011;38816;51.142;-0.974;2024-01-15T02:14:14;3.35;;;3.05;;
51438;SDS011;38816;51.142;-0.974;2024-01-15T02:16:40;4.47;;;2.95;;
51438;SDS011;38816;51.142;-0.974;2024-01-15T02:19:06;3.13;;;2.83;;
51438;SDS011;38816;51.142;-0.974;2024-01-15T02:21:31;4.38;;;2.50;;
51438;SDS011;38816;51.142;-0.974;2024-01-15T02:23:57;4.03;;;2.80;;
51438;SDS011;38816;51.142;-0.974;2024-01-15T02:26:23;6.53;;;2.67;;
51438;SDS011;38816;51.142;-0.974;2024-01-15T02:28:49;3.40;;;2.55;;
51438;SDS011;38816;51.142;-0.974;2024-01-15T02:31:16;3.45;;;2.70;;
51438;SDS011;38816;51.142;-0.974;2024-01-15T02:33:42;3.47;;;3.00;;
51438;SDS011;38816;51.142;-0.974;2024-01-15T02:36:08;5.57;;;3.00;;
51438;SDS011;38816;51.142;-0.974;2024-01-15T02:38:35;3.70;;;2.85;;
51438;SDS011;38816;51.142;-0.974;2024-01-15T02:41:01;5.20;;;2.72;;
51438;SDS011;38816;51.142;-0.974;2024-01-15T02:43:29;3.33;;;2.75;;
51438;SDS011;38816;51.142;-0.974;2024-01-15T02:45:55;3.00;;;2.70;;
51438;SDS011;38816;51.142;-0.974;2024-01-15T02:48:21;3.58;;;2.60;;
51438;SDS011;38816;51.142;-0.974;2024-01-15T02:50:46;3.40;;;2.50;;
51438;SDS011;38816;51.142;-0.974;2024-01-15T02:53:12;4.78;;;2.50;;
51438;SDS011;38816;51.142;-0.974;2024-01-15T02:55:40;2.97;;;2.47;;
51438;SDS011;38816;51.142;-0.974;2024-01-15T02:58:06;2.90;;;2.20;;
51438;SDS011;38816;51.142;-0.974;2024-01-15T03:00:32;5.22;;;2.30;;
51438;SDS011;38816;51.142;-0.974;2024-01-15T03:02:57;2.58;;;2.38;;
51438;SDS011;38816;51.142;-0.974;2024-01-15T03:05:23;4.38;;;2.58;;
51438;SDS011;38816;51.142;-0.974;2024-01-15T03:07:48;2.30;;;2.10;;
51438;SDS011;38816;51.142;-0.974;2024-01-15T03:10:14;3.70;;;2.50;;
51438;SDS011;38816;51.142;-0.974;2024-01-15T03:12:39;3.10;;;2.80;;
51438;SDS011;38816;51.142;-0.974;2024-01-15T03:15:05;2.95;;;2.67;;
51438;SDS011;38816;51.142;-0.974;2024-01-15T03:17:31;2.58;;;2.40;;
51438;SDS011;38816;51.142;-0.974;2024-01-15T03:19:56;2.55;;;2.35;;
51438;SDS011;38816;51.142;-0.974;2024-01-15T03:22:22;2.88;;;2.55;;
51438;SDS011;38816;51.142;-0.974;2024-01-15T03:24:50;2.55;;;2.33;;
51438;SDS011;38816;51.142;-0.974;2024-01-15T03:27:16;3.47;;;2.50;;
51438;SDS011;38816;51.142;-0.974;2024-01-15T03:29:41;3.88;;;2.40;;
51438;SDS011;38816;51.142;-0.974;2024-01-15T03:32:07;5.75;;;4.30;;
51438;SDS011;38816;51.142;-0.974;2024-01-15T03:34:32;3.03;;;2.75;;
51438;SDS011;38816;51.142;-0.974;2024-01-15T03:36:58;4.45;;;2.45;;
51438;SDS011;38816;51.142;-0.974;2024-01-15T03:39:24;3.15;;;2.85;;
51438;SDS011;38816;51.142;-0.974;2024-01-15T03:41:50;2.60;;;2.40;;
51438;SDS011;38816;51.142;-0.974;2024-01-15T03:44:15;3.05;;;2.28;;
51438;SDS011;38816;51.142;-0.974;2024-01-15T03:46:41;2.50;;;2.30;;
51438;SDS011;38816;51.142;-0.974;2024-01-15T03:49:06;2.30;;;2.20;;
51438;SDS011;38816;51.142;-0.974;2024-01-15T03:51:32;4.70;;;2.75;;
51438;SDS011;38816;51.142;-0.974;2024-01-15T03:53:57;4.45;;;2.10;;
51438;SDS011;38816;51.142;-0.974;2024-01-15T03:56:23;2.22;;;2.03;;
51438;SDS011;38816;51.142;-0.974;2024-01-15T03:58:48;2.35;;;2.20;;
51438;SDS011;38816;51.142;-0.974;2024-01-15T04:01:14;2.53;;;2.30;;
51438;SDS011;38816;51.142;-0.974;2024-01-15T04:03:39;3.28;;;2.30;;
51438;SDS011;38816;51.142;-0.974;2024-01-15T04:06:05;5.03;;;2.60;;
51438;SDS011;38816;51.142;-0.974;2024-01-15T04:08:33;2.50;;;2.30;;
51438;SDS011;38816;51.142;-0.974;2024-01-15T04:10:59;2.85;;;2.28;;
51438;SDS011;38816;51.142;-0.974;2024-01-15T04:13:24;6.15;;;2.53;;
51438;SDS011;38816;51.142;-0.974;2024-01-15T04:15:50;2.40;;;2.20;;
51438;SDS011;38816;51.142;-0.974;2024-01-15T04:18:15;3.17;;;2.40;;
51438;SDS011;38816;51.142;-0.974;2024-01-15T04:20:41;2.78;;;2.58;;
51438;SDS011;38816;51.142;-0.974;2024-01-15T04:23:07;2.20;;;2.00;;
51438;SDS011;38816;51.142;-0.974;2024-01-15T04:25:32;4.40;;;2.75;;
51438;SDS011;38816;51.142;-0.974;2024-01-15T04:27:58;2.80;;;2.60;;
51438;SDS011;38816;51.142;-0.974;2024-01-15T04:30:26;3.10;;;2.03;;
51438;SDS011;38816;51.142;-0.974;2024-01-15T04:32:52;2.63;;;2.40;;
51438;SDS011;38816;51.142;-0.974;2024-01-15T04:35:17;4.38;;;2.45;;
51438;SDS011;38816;51.142;-0.974;2024-01-15T04:37:43;2.53;;;2.33;;
51438;SDS011;38816;51.142;-0.974;2024-01-15T04:40:09;4.32;;;2.45;;
51438;SDS011;38816;51.142;-0.974;2024-01-15T04:42:34;3.70;;;2.53;;
51438;SDS011;38816;51.142;-0.974;2024-01-15T04:45:00;2.47;;;2.28;;
51438;SDS011;38816;51.142;-0.974;2024-01-15T04:47:34;3.47;;;2.58;;
51438;SDS011;38816;51.142;-0.974;2024-01-15T04:50:01;2.58;;;2.35;;
51438;SDS011;38816;51.142;-0.974;2024-01-15T04:52:28;3.05;;;2.20;;
51438;SDS011;38816;51.142;-0.974;2024-01-15T04:54:53;2.97;;;2.40;;
51438;SDS011;38816;51.142;-0.974;2024-01-15T04:57:19;2.63;;;2.40;;
51438;SDS011;38816;51.142;-0.974;2024-01-15T04:59:44;3.10;;;2.17;;
51438;SDS011;38816;51.142;-0.974;2024-01-15T05:02:09;2.90;;;2.33;;
51438;SDS011;38816;51.142;-0.974;2024-01-15T05:04:35;3.35;;;2.20;;
51438;SDS011;38816;51.142;-0.974;2024-01-15T05:07:00;2.42;;;2.22;;
51438;SDS011;38816;51.142;-0.974;2024-01-15T05:09:26;2.20;;;2.10;;
51438;SDS011;38816;51.142;-0.974;2024-01-15T05:11:51;2.97;;;2.40;;
51438;SDS011;38816;51.142;-0.974;2024-01-15T05:14:17;2.60;;;2.40;;
51438;SDS011;38816;51.142;-0.974;2024-01-15T05:16:48;5.00;;;2.35;;
51438;SDS011;38816;51.142;-0.974;2024-01-15T05:19:15;3.80;;;2.63;;
51438;SDS011;38816;51.142;-0.974;2024-01-15T05:21:41;3.70;;;2.20;;
51438;SDS011;38816;51.142;-0.974;2024-01-15T05:24:07;2.85;;;2.58;;
51438;SDS011;38816;51.142;-0.974;2024-01-15T05:26:33;4.05;;;2.47;;
51438;SDS011;38816;51.142;-0.974;2024-01-15T05:28:59;3.92;;;2.60;;
51438;SDS011;38816;51.142;-0.974;2024-01-15T05:31:24;3.63;;;2.78;;
51438;SDS011;38816;51.142;-0.974;2024-01-15T05:33:50;4.75;;;2.90;;
51438;SDS011;38816;51.142;-0.974;2024-01-15T05:36:15;7.25;;;3.22;;
51438;SDS011;38816;51.142;-0.974;2024-01-15T05:38:41;3.58;;;2.63;;
51438;SDS011;38816;51.142;-0.974;2024-01-15T05:41:06;2.92;;;2.60;;
51438;SDS011;38816;51.142;-0.974;2024-01-15T05:43:32;2.92;;;2.28;;
51438;SDS011;38816;51.142;-0.974;2024-01-15T05:45:57;3.08;;;2.72;;
51438;SDS011;38816;51.142;-0.974;2024-01-15T05:48:23;3.95;;;2.70;;
51438;SDS011;38816;51.142;-0.974;2024-01-15T05:50:48;4.10;;;2.47;;
51438;SDS011;38816;51.142;-0.974;2024-01-15T05:53:14;2.50;;;2.30;;
51438;SDS011;38816;51.142;-0.974;2024-01-15T05:55:39;3.05;;;2.15;;
51438;SDS011;38816;51.142;-0.974;2024-01-15T05:58:05;3.20;;;2.70;;
51438;SDS011;38816;51.142;-0.974;2024-01-15T06:00:30;4.30;;;2.47;;
51438;SDS011;38816;51.142;-0.974;2024-01-15T06:02:58;3.10;;;2.80;;
51438;SDS011;38816;51.142;-0.974;2024-01-15T06:05:24;3.40;;;3.10;;
51438;SDS011;38816;51.142;-0.974;2024-01-15T06:07:49;3.80;;;3.40;;
51438;SDS011;38816;51.142;-0.974;2024-01-15T06:10:15;3.58;;;3.00;;
51438;SDS011;38816;51.142;-0.974;2024-01-15T06:12:42;3.22;;;2.90;;
51438;SDS011;38816;51.142;-0.974;2024-01-15T06:15:08;3.65;;;3.15;;
51438;SDS011;38816;51.142;-0.974;2024-01-15T06:17:34;4.35;;;3.25;;
51438;SDS011;38816;51.142;-0.974;2024-01-15T06:19:59;3.28;;;2.88;;
51438;SDS011;38816;51.142;-0.974;2024-01-15T06:22:25;3.30;;;3.00;;
51438;SDS011;38816;51.142;-0.974;2024-01-15T06:24:50;4.57;;;3.47;;
51438;SDS011;38816;51.142;-0.974;2024-01-15T06:27:16;3.78;;;3.28;;
51438;SDS011;38816;51.142;-0.974;2024-01-15T06:29:44;4.05;;;3.38;;
51438;SDS011;38816;51.142;-0.974;2024-01-15T06:32:12;3.80;;;3.50;;
51438;SDS011;38816;51.142;-0.974;2024-01-15T06:34:37;4.38;;;3.97;;
51438;SDS011;38816;51.142;-0.974;2024-01-15T06:37:03;11.80;;;3.70;;
51438;SDS011;38816;51.142;-0.974;2024-01-15T06:39:28;6.22;;;3.70;;
51438;SDS011;38816;51.142;-0.974;2024-01-15T06:41:54;9.65;;;5.47;;
51438;SDS011;38816;51.142;-0.974;2024-01-15T06:44:20;5.13;;;3.83;;
51438;SDS011;38816;51.142;-0.974;2024-01-15T06:46:46;7.38;;;4.28;;
51438;SDS011;38816;51.142;-0.974;2024-01-15T06:49:12;6.03;;;5.53;;
51438;SDS011;38816;51.142;-0.974;2024-01-15T06:51:38;7.18;;;4.47;;
51438;SDS011;38816;51.142;-0.974;2024-01-15T06:54:04;8.07;;;5.13;;
51438;SDS011;38816;51.142;-0.974;2024-01-15T06:56:31;6.63;;;5.55;;
51438;SDS011;38816;51.142;-0.974;2024-01-15T06:58:56;6.68;;;5.15;;
51438;SDS011;38816;51.142;-0.974;2024-01-15T07:01:22;7.38;;;5.40;;
51438;SDS011;38816;51.142;-0.974;2024-01-15T07:03:47;6.10;;;5.60;;
51438;SDS011;38816;51.142;-0.974;2024-01-15T07:06:13;6.90;;;5.55;;
51438;SDS011;38816;51.142;-0.974;2024-01-15T07:08:39;7.20;;;5.55;;
51438;SDS011;38816;51.142;-0.974;2024-01-15T07:11:05;5.97;;;5.30;;
51438;SDS011;38816;51.142;-0.974;2024-01-15T07:13:31;7.22;;;5.63;;
51438;SDS011;38816;51.142;-0.974;2024-01-15T07:15:57;6.07;;;5.57;;
51438;SDS011;38816;51.142;-0.974;2024-01-15T07:18:23;8.98;;;5.85;;
51438;SDS011;38816;51.142;-0.974;2024-01-15T07:20:48;6.38;;;5.55;;
51438;SDS011;38816;51.142;-0.974;2024-01-15T07:23:14;5.20;;;4.78;;
51438;SDS011;38816;51.142;-0.974;2024-01-15T07:25:40;5.95;;;5.30;;
51438;SDS011;38816;51.142;-0.974;2024-01-15T07:28:05;8.05;;;5.03;;
51438;SDS011;38816;51.142;-0.974;2024-01-15T07:30:31;5.88;;;5.30;;
51438;SDS011;38816;51.142;-0.974;2024-01-15T07:32:56;7.05;;;5.03;;
51438;SDS011;38816;51.142;-0.974;2024-01-15T07:35:21;5.43;;;4.93;;
51438;SDS011;38816;51.142;-0.974;2024-01-15T07:37:47;8.15;;;4.75;;
51438;SDS011;38816;51.142;-0.974;2024-01-15T07:40:13;6.65;;;5.25;;
51438;SDS011;38816;51.142;-0.974;2024-01-15T07:42:39;5.05;;;4.63;;
51438;SDS011;38816;51.142;-0.974;2024-01-15T07:45:05;5.43;;;4.55;;
51438;SDS011;38816;51.142;-0.974;2024-01-15T07:47:31;5.13;;;4.70;;
51438;SDS011;38816;51.142;-0.974;2024-01-15T07:49:57;6.43;;;5.13;;
51438;SDS011;38816;51.142;-0.974;2024-01-15T07:52:22;6.40;;;4.65;;
51438;SDS011;38816;51.142;-0.974;2024-01-15T07:54:47;6.18;;;5.07;;
51438;SDS011;38816;51.142;-0.974;2024-01-15T07:57:13;6.90;;;4.95;;
51438;SDS011;38816;51.142;-0.974;2024-01-15T07:59:39;5.75;;;5.05;;
51438;SDS011;38816;51.142;-0.974;2024-01-15T08:02:05;6.88;;;5.22;;
51438;SDS011;38816;51.142;-0.974;2024-01-15T08:04:30;6.70;;;5.32;;
51438;SDS011;38816;51.142;-0.974;2024-01-15T08:06:56;5.55;;;5.05;;
51438;SDS011;38816;51.142;-0.974;2024-01-15T08:09:22;5.22;;;4.72;;
51438;SDS011;38816;51.142;-0.974;2024-01-15T08:11:48;5.38;;;4.82;;
51438;SDS011;38816;51.142;-0.974;2024-01-15T08:14:14;7.53;;;4.68;;
51438;SDS011;38816;51.142;-0.974;2024-01-15T08:16:40;6.32;;;4.38;;
51438;SDS011;38816;51.142;-0.974;2024-01-15T08:19:05;8.52;;;4.82;;
51438;SDS011;38816;51.142;-0.974;2024-01-15T08:21:31;6.60;;;4.72;;
51438;SDS011;38816;51.142;-0.974;2024-01-15T08:23:57;5.55;;;5.05;;
51438;SDS011;38816;51.142;-0.974;2024-01-15T08:26:24;12.07;;;5.10;;
51438;SDS011;38816;51.142;-0.974;2024-01-15T08:28:49;5.13;;;4.65;;
51438;SDS011;38816;51.142;-0.974;2024-01-15T08:31:15;6.25;;;4.78;;
51438;SDS011;38816;51.142;-0.974;2024-01-15T08:33:41;5.88;;;4.68;;
51438;SDS011;38816;51.142;-0.974;2024-01-15T08:36:06;6.70;;;4.03;;
51438;SDS011;38816;51.142;-0.974;2024-01-15T08:38:32;8.13;;;4.55;;
51438;SDS011;38816;51.142;-0.974;2024-01-15T08:40:57;8.38;;;4.63;;
51438;SDS011;38816;51.142;-0.974;2024-01-15T08:43:26;6.70;;;4.15;;
51438;SDS011;38816;51.142;-0.974;2024-01-15T08:45:52;6.07;;;4.75;;
51438;SDS011;38816;51.142;-0.974;2024-01-15T08:48:17;5.93;;;4.57;;
51438;SDS011;38816;51.142;-0.974;2024-01-15T08:50:43;6.00;;;4.55;;
51438;SDS011;38816;51.142;-0.974;2024-01-15T08:53:11;4.85;;;4.38;;
51438;SDS011;38816;51.142;-0.974;2024-01-15T08:55:37;5.03;;;4.43;;
51438;SDS011;38816;51.142;-0.974;2024-01-15T08:58:03;5.70;;;4.63;;
51438;SDS011;38816;51.142;-0.974;2024-01-15T09:00:29;7.30;;;4.50;;
51438;SDS011;38816;51.142;-0.974;2024-01-15T09:02:55;6.97;;;4.72;;
51438;SDS011;38816;51.142;-0.974;2024-01-15T09:05:21;8.30;;;4.80;;
51438;SDS011;38816;51.142;-0.974;2024-01-15T09:07:47;7.78;;;4.50;;
51438;SDS011;38816;51.142;-0.974;2024-01-15T09:10:13;4.40;;;3.92;;
51438;SDS011;38816;51.142;-0.974;2024-01-15T09:12:39;4.40;;;3.63;;
51438;SDS011;38816;51.142;-0.974;2024-01-15T09:15:05;4.03;;;3.67;;
51438;SDS011;38816;51.142;-0.974;2024-01-15T09:17:31;7.13;;;6.53;;
51438;SDS011;38816;51.142;-0.974;2024-01-15T09:19:57;8.88;;;4.40;;
51438;SDS011;38816;51.142;-0.974;2024-01-15T09:22:22;5.32;;;3.95;;
51438;SDS011;38816;51.142;-0.974;2024-01-15T09:24:48;7.53;;;5.35;;
51438;SDS011;38816;51.142;-0.974;2024-01-15T09:27:13;12.35;;;7.22;;
51438;SDS011;38816;51.142;-0.974;2024-01-15T09:29:39;9.43;;;5.72;;
51438;SDS011;38816;51.142;-0.974;2024-01-15T09:32:10;8.32;;;4.05;;
51438;SDS011;38816;51.142;-0.974;2024-01-15T09:34:36;14.55;;;5.47;;
51438;SDS011;38816;51.142;-0.974;2024-01-15T09:37:04;7.00;;;3.30;;
51438;SDS011;38816;51.142;-0.974;2024-01-15T09:39:30;4.70;;;2.97;;
51438;SDS011;38816;51.142;-0.974;2024-01-15T09:41:57;6.53;;;4.72;;
51438;SDS011;38816;51.142;-0.974;2024-01-15T09:44:23;6.47;;;2.88;;
51438;SDS011;38816;51.142;-0.974;2024-01-15T09:46:49;14.70;;;13.65;;
51438;SDS011;38816;51.142;-0.974;2024-01-15T09:49:16;5.85;;;2.35;;
51438;SDS011;38816;51.142;-0.974;2024-01-15T09:51:43;5.40;;;2.45;;
51438;SDS011;38816;51.142;-0.974;2024-01-15T09:54:09;7.57;;;5.60;;
51438;SDS011;38816;51.142;-0.974;2024-01-15T09:56:35;6.47;;;2.88;;
51438;SDS011;38816;51.142;-0.974;2024-01-15T09:59:01;4.70;;;2.40;;
51438;SDS011;38816;51.142;-0.974;2024-01-15T10:01:28;3.75;;;2.30;;
51438;SDS011;38816;51.142;-0.974;2024-01-15T10:03:54;4.05;;;2.50;;
51438;SDS011;38816;51.142;-0.974;2024-01-15T10:06:21;5.22;;;2.80;;
51438;SDS011;38816;51.142;-0.974;2024-01-15T10:08:52;3.95;;;3.58;;
51438;SDS011;38816;51.142;-0.974;2024-01-15T10:11:19;7.00;;;3.30;;
51438;SDS011;38816;51.142;-0.974;2024-01-15T10:13:44;7.72;;;7.05;;
51438;SDS011;38816;51.142;-0.974;2024-01-15T10:16:10;6.78;;;3.85;;
51438;SDS011;38816;51.142;-0.974;2024-01-15T10:18:36;4.95;;;2.50;;
51438;SDS011;38816;51.142;-0.974;2024-01-15T10:21:04;11.95;;;8.07;;
51438;SDS011;38816;51.142;-0.974;2024-01-15T10:23:31;2.85;;;2.40;;
51438;SDS011;38816;51.142;-0.974;2024-01-15T10:25:57;5.90;;;4.43;;
51438;SDS011;38816;51.142;-0.974;2024-01-15T10:28:23;5.03;;;2.40;;
51438;SDS011;38816;51.142;-0.974;2024-01-15T10:30:52;11.07;;;5.90;;
51438;SDS011;38816;51.142;-0.974;2024-01-15T10:33:21;3.28;;;2.67;;
51438;SDS011;38816;51.142;-0.974;2024-01-15T10:35:53;4.85;;;3.58;;
51438;SDS011;38816;51.142;-0.974;2024-01-15T10:38:20;6.65;;;2.92;;
51438;SDS011;38816;51.142;-0.974;2024-01-15T10:40:47;7.13;;;3.67;;
51438;SDS011;38816;51.142;-0.974;2024-01-15T10:43:16;4.22;;;2.70;;
51438;SDS011;38816;51.142;-0.974;2024-01-15T10:45:44;34.72;;;24.40;;
51438;SDS011;38816;51.142;-0.974;2024-01-15T10:48:10;5.30;;;2.50;;
51438;SDS011;38816;51.142;-0.974;2024-01-15T10:50:36;7.47;;;4.32;;
51438;SDS011;38816;51.142;-0.974;2024-01-15T10:53:01;12.73;;;8.57;;
51438;SDS011;38816;51.142;-0.974;2024-01-15T10:55:28;4.50;;;4.18;;
51438;SDS011;38816;51.142;-0.974;2024-01-15T10:57:55;5.72;;;5.22;;
51438;SDS011;38816;51.142;-0.974;2024-01-15T11:00:22;12.75;;;9.65;;
51438;SDS011;38816;51.142;-0.974;2024-01-15T11:02:47;6.78;;;6.22;;
51438;SDS011;38816;51.142;-0.974;2024-01-15T11:05:13;6.03;;;4.13;;
51438;SDS011;38816;51.142;-0.974;2024-01-15T11:07:39;4.15;;;3.50;;
51438;SDS011;38816;51.142;-0.974;2024-01-15T11:10:06;5.03;;;3.17;;
51438;SDS011;38816;51.142;-0.974;2024-01-15T11:12:35;5.10;;;4.60;;
51438;SDS011;38816;51.142;-0.974;2024-01-15T11:15:02;4.03;;;3.50;;
51438;SDS011;38816;51.142;-0.974;2024-01-15T11:20:26;7.97;;;6.82;;
51438;SDS011;38816;51.142;-0.974;2024-01-15T11:22:56;14.13;;;12.88;;
51438;SDS011;38816;51.142;-0.974;2024-01-15T11:25:34;6.38;;;4.95;;
51438;SDS011;38816;51.142;-0.974;2024-01-15T11:28:02;6.47;;;4.85;;
51438;SDS011;38816;51.142;-0.974;2024-01-15T11:30:27;6.00;;;4.60;;
51438;SDS011;38816;51.142;-0.974;2024-01-15T11:32:53;5.20;;;3.95;;
51438;SDS011;38816;51.142;-0.974;2024-01-15T11:35:18;6.75;;;6.15;;
51438;SDS011;38816;51.142;-0.974;2024-01-15T11:42:57;22.50;;;19.00;;
51438;SDS011;38816;51.142;-0.974;2024-01-15T11:45:23;17.35;;;15.70;;
51438;SDS011;38816;51.142;-0.974;2024-01-15T11:50:47;18.13;;;16.92;;
51438;SDS011;38816;51.142;-0.974;2024-01-15T11:55:52;10.45;;;9.80;;
51438;SDS011;38816;51.142;-0.974;2024-01-15T11:58:23;60.42;;;52.67;;
51438;SDS011;38816;51.142;-0.974;2024-01-15T12:00:52;23.05;;;21.13;;
51438;SDS011;38816;51.142;-0.974;2024-01-15T12:03:20;44.08;;;40.17;;
51438;SDS011;38816;51.142;-0.974;2024-01-15T12:05:48;24.55;;;22.63;;
51438;SDS011;38816;51.142;-0.974;2024-01-15T12:08:14;23.05;;;21.42;;
51438;SDS011;38816;51.142;-0.974;2024-01-15T12:10:46;23.80;;;22.05;;
51438;SDS011;38816;51.142;-0.974;2024-01-15T12:13:12;20.45;;;18.92;;
51438;SDS011;38816;51.142;-0.974;2024-01-15T12:15:39;22.95;;;21.15;;
51438;SDS011;38816;51.142;-0.974;2024-01-15T12:18:07;22.55;;;20.23;;
51438;SDS011;38816;51.142;-0.974;2024-01-15T12:20:33;20.20;;;18.50;;
51438;SDS011;38816;51.142;-0.974;2024-01-15T12:23:00;18.95;;;17.52;;
51438;SDS011;38816;51.142;-0.974;2024-01-15T12:25:26;17.50;;;16.30;;
51438;SDS011;38816;51.142;-0.974;2024-01-15T12:27:52;19.15;;;17.70;;
51438;SDS011;38816;51.142;-0.974;2024-01-15T12:30:19;15.85;;;14.52;;
51438;SDS011;38816;51.142;-0.974;2024-01-15T12:32:48;14.82;;;13.73;;
51438;SDS011;38816;51.142;-0.974;2024-01-15T12:35:14;23.23;;;21.50;;
51438;SDS011;38816;51.142;-0.974;2024-01-15T12:37:43;14.77;;;13.50;;
51438;SDS011;38816;51.142;-0.974;2024-01-15T12:40:09;20.52;;;18.83;;
51438;SDS011;38816;51.142;-0.974;2024-01-15T12:42:42;16.55;;;15.10;;
51438;SDS011;38816;51.142;-0.974;2024-01-15T12:45:08;19.50;;;17.80;;
51438;SDS011;38816;51.142;-0.974;2024-01-15T12:47:35;14.90;;;13.68;;
51438;SDS011;38816;51.142;-0.974;2024-01-15T12:50:02;16.05;;;14.85;;
51438;SDS011;38816;51.142;-0.974;2024-01-15T12:52:28;18.98;;;17.48;;
51438;SDS011;38816;51.142;-0.974;2024-01-15T12:54:54;13.93;;;12.82;;
51438;SDS011;38816;51.142;-0.974;2024-01-15T12:57:20;15.93;;;14.60;;
51438;SDS011;38816;51.142;-0.974;2024-01-15T12:59:49;8.77;;;8.18;;
51438;SDS011;38816;51.142;-0.974;2024-01-15T13:02:15;16.60;;;15.20;;
51438;SDS011;38816;51.142;-0.974;2024-01-15T13:04:44;10.20;;;9.48;;
51438;SDS011;38816;51.142;-0.974;2024-01-15T13:07:09;12.65;;;11.73;;
51438;SDS011;38816;51.142;-0.974;2024-01-15T13:09:35;28.08;;;25.95;;
51438;SDS011;38816;51.142;-0.974;2024-01-15T13:12:04;16.83;;;15.35;;
51438;SDS011;38816;51.142;-0.974;2024-01-15T13:14:30;18.50;;;17.15;;
51438;SDS011;38816;51.142;-0.974;2024-01-15T13:16:56;11.00;;;10.18;;
51438;SDS011;38816;51.142;-0.974;2024-01-15T13:19:23;17.73;;;16.48;;
51438;SDS011;38816;51.142;-0.974;2024-01-15T13:21:55;40.15;;;36.53;;
51438;SDS011;38816;51.142;-0.974;2024-01-15T13:24:23;41.13;;;37.80;;
51438;SDS011;38816;51.142;-0.974;2024-01-15T13:26:48;25.55;;;23.80;;
51438;SDS011;38816;51.142;-0.974;2024-01-15T13:29:14;14.30;;;12.80;;
51438;SDS011;38816;51.142;-0.974;2024-01-15T13:31:40;88.30;;;82.32;;
51438;SDS011;38816;51.142;-0.974;2024-01-15T13:34:06;80.95;;;74.95;;
51438;SDS011;38816;51.142;-0.974;2024-01-15T13:36:32;62.42;;;57.95;;
51438;SDS011;38816;51.142;-0.974;2024-01-15T13:38:58;57.45;;;53.70;;
51438;SDS011;38816;51.142;-0.974;2024-01-15T13:41:24;95.40;;;88.85;;
51438;SDS011;38816;51.142;-0.974;2024-01-15T13:43:53;92.75;;;86.63;;
51438;SDS011;38816;51.142;-0.974;2024-01-15T13:46:23;99.75;;;93.05;;
51438;SDS011;38816;51.142;-0.974;2024-01-15T13:48:51;66.55;;;62.13;;
51438;SDS011;38816;51.142;-0.974;2024-01-15T13:51:17;64.05;;;59.75;;
51438;SDS011;38816;51.142;-0.974;2024-01-15T13:53:43;57.53;;;53.58;;
51438;SDS011;38816;51.142;-0.974;2024-01-15T13:56:08;52.10;;;48.53;;
51438;SDS011;38816;51.142;-0.974;2024-01-15T13:58:37;65.93;;;61.53;;
51438;SDS011;38816;51.142;-0.974;2024-01-15T14:01:03;55.45;;;51.65;;
51438;SDS011;38816;51.142;-0.974;2024-01-15T14:03:31;63.42;;;59.20;;
51438;SDS011;38816;51.142;-0.974;2024-01-15T14:05:57;66.18;;;61.67;;
51438;SDS011;38816;51.142;-0.974;2024-01-15T14:08:23;74.40;;;69.10;;
51438;SDS011;38816;51.142;-0.974;2024-01-15T14:10:49;82.32;;;76.82;;
51438;SDS011;38816;51.142;-0.974;2024-01-15T14:13:15;90.13;;;84.13;;
51438;SDS011;38816;51.142;-0.974;2024-01-15T14:15:40;91.05;;;85.07;;
51438;SDS011;38816;51.142;-0.974;2024-01-15T14:18:06;118.57;;;110.68;;
51438;SDS011;38816;51.142;-0.974;2024-01-15T14:20:32;165.45;;;154.40;;
51438;SDS011;38816;51.142;-0.974;2024-01-15T14:23:00;168.85;;;157.68;;
51438;SDS011;38816;51.142;-0.974;2024-01-15T14:25:26;202.13;;;188.88;;
51438;SDS011;38816;51.142;-0.974;2024-01-15T14:27:51;206.38;;;192.75;;
51438;SDS011;38816;51.142;-0.974;2024-01-15T14:30:17;206.90;;;193.18;;
51438;SDS011;38816;51.142;-0.974;2024-01-15T14:32:43;215.13;;;200.35;;
51438;SDS011;38816;51.142;-0.974;2024-01-15T14:35:08;217.20;;;203.20;;